Time;durP1;ratioP1;P1;durP2;ratioP2;P2;SDS_P1;SDS_P2;PMS_P1;PMS_P2;Temp;Humidity;BMP_temperature;BMP_pressure;BME280_temperature;BME280_humidity;BME280_pressure;Samples;Min_cycle;Max_cycle;Signal;HPM_P1;HPM_P2
2022/07/22 00:00:15;;;;;;;;;;;;;;;20.10;61.12;97262.56;30001;983;1875;-65
2022/07/22 00:00:46;;;;;;;;;;;;;;;20.09;61.23;97259.03;30001;983;1876;-66
2022/07/22 00:01:17;;;;;;;;;;;;;;;20.07;61.33;97262.13;30001;983;1875;-66
2022/07/22 00:01:48;;;;;;;;;;;;;;;20.07;61.49;97261.31;30001;983;1862;-66
2022/07/22 00:02:19;;;;;;;;;;;;;;;20.06;61.58;97262.47;30001;983;1866;-66
2022/07/22 00:02:50;;;;;;;;;;;;;;;20.04;61.63;97268.31;30001;982;1862;-65
2022/07/22 00:03:21;;;;;;;;;;;;;;;20.02;61.58;97267.84;30001;982;1867;-65
2022/07/22 00:03:52;;;;;;;;;;;;;;;20.00;61.78;97272.91;30001;982;1875;-66
2022/07/22 00:04:23;;;;;;;;;;;;;;;19.98;61.94;97264.19;30001;982;1875;-66
2022/07/22 00:04:53;;;;;;;;;;;;;;;19.98;62.17;97268.88;30001;983;1861;-65
2022/07/22 00:05:24;;;;;;;;;;;;;;;19.96;61.86;97260.97;30001;983;1866;-65
2022/07/22 00:05:55;;;;;;;;;;;;;;;19.96;61.88;97269.22;30001;983;1875;-65
2022/07/22 00:06:26;;;;;;;;;;;;;;;19.94;62.12;97268.78;30001;983;1875;-66
2022/07/22 00:06:57;;;;;;;;;;;;;;;19.92;62.07;97271.06;30001;983;1875;-66
2022/07/22 00:07:28;;;;;;;;;;;;;;;19.89;62.29;97263.47;30001;983;1875;-65
2022/07/22 00:07:58;;;;;;;;;;;;;;;19.88;62.15;97261.88;30001;983;1875;-65
2022/07/22 00:08:30;;;;;;;;;;;;;;;19.86;62.61;97269.69;30001;983;1875;-66
2022/07/22 00:09:01;;;;;;;;;;;;;;;19.85;62.40;97275.53;30001;983;1875;-66
2022/07/22 00:09:33;;;;;;;;;;;;;;;19.84;62.69;97263.72;30001;983;1875;-66
2022/07/22 00:10:06;;;;;;;;;;;;;;;19.83;62.80;97259.34;30001;982;1862;-65
2022/07/22 00:10:37;;;;;;;;;;;;;;;19.81;62.90;97267.16;30001;982;1866;-65
2022/07/22 00:11:07;;;;;;;;;;;;;;;19.82;62.71;97257.75;30001;982;1862;-67
2022/07/22 00:11:38;;;;;;;;;;;;;;;19.82;62.68;97260.50;30001;982;1867;-66
2022/07/22 00:12:10;;;;;;;;;;;;;;;19.82;62.38;97260.50;30001;982;1875;-66
2022/07/22 00:12:41;;;;;;;;;;;;;;;19.83;62.57;97275.06;30001;983;1875;-65
2022/07/22 00:13:12;;;;;;;;;;;;;;;19.80;62.92;97264.75;30001;983;1875;-66
2022/07/22 00:13:44;;;;;;;;;;;;;;;19.77;62.91;97271.72;30001;983;1875;-64
2022/07/22 00:14:15;;;;;;;;;;;;;;;19.73;62.54;97268.09;30001;983;1875;-65
2022/07/22 00:14:48;;;;;;;;;;;;;;;19.71;62.90;97267.63;30001;983;1875;-67
2022/07/22 00:15:19;;;;;;;;;;;;;;;19.68;62.84;97273.81;30001;983;1875;-65
2022/07/22 00:15:49;;;;;;;;;;;;;;;19.65;63.47;97266.22;30001;983;1875;-65
2022/07/22 00:16:21;;;;;;;;;;;;;;;19.63;63.33;97269.31;30001;983;1862;-66
2022/07/22 00:16:51;;;;;;;;;;;;;;;19.62;63.55;97266.91;30001;983;1866;-66
2022/07/22 00:17:22;;;;;;;;;;;;;;;19.62;63.20;97272.41;30001;964;1852;-66
2022/07/22 00:17:53;;;;;;;;;;;;;;;19.61;64.12;97270.81;30001;982;1875;-66
2022/07/22 00:18:24;;;;;;;;;;;;;;;19.60;65.39;97266.44;30001;982;1867;-66
2022/07/22 00:18:59;;;;;;;;;;;;;;;19.57;64.76;97269.88;30001;982;1871;-66
2022/07/22 00:19:29;;;;;;;;;;;;;;;19.55;64.26;97272.97;30001;982;1867;-65
2022/07/22 00:20:00;;;;;;;;;;;;;;;19.55;64.66;97272.19;30001;983;1870;-67
2022/07/22 00:20:31;;;;;;;;;;;;;;;19.54;64.23;97267.81;30001;983;1879;-66
2022/07/22 00:21:02;;;;;;;;;;;;;;;19.53;64.58;97271.72;30001;983;1879;-66
2022/07/22 00:21:33;;;;;;;;;;;;;;;19.52;65.03;97272.84;30001;983;1866;-64
2022/07/22 00:22:04;;;;;;;;;;;;;;;19.50;64.75;97269.59;30001;983;1870;-66
2022/07/22 00:22:35;;;;;;;;;;;;;;;19.48;64.37;97271.91;30001;983;1879;-66
2022/07/22 00:23:06;;;;;;;;;;;;;;;19.50;64.14;97264.91;30001;983;1866;-66
2022/07/22 00:23:37;;;;;;;;;;;;;;;19.50;64.23;97269.59;30001;983;1871;-66
2022/07/22 00:24:08;;;;;;;;;;;;;;;19.49;64.60;97268.81;30001;983;1866;-65
2022/07/22 00:24:39;;;;;;;;;;;;;;;19.47;64.56;97264.78;30001;982;1871;-65
2022/07/22 00:25:10;;;;;;;;;;;;;;;19.44;64.84;97263.50;30001;982;1880;-65
2022/07/22 00:25:41;;;;;;;;;;;;;;;19.43;64.54;97265.47;30001;982;1880;-66
2022/07/22 00:26:12;;;;;;;;;;;;;;;19.43;64.36;97267.41;30001;982;1867;-65
2022/07/22 00:26:44;;;;;;;;;;;;;;;19.42;64.44;97260.31;30001;982;1871;-66
2022/07/22 00:27:14;;;;;;;;;;;;;;;19.40;64.80;97266.13;30001;982;1880;-66
2022/07/22 00:27:46;;;;;;;;;;;;;;;19.39;64.60;97264.56;30001;983;1879;-66
2022/07/22 00:28:17;;;;;;;;;;;;;;;19.39;65.20;97267.31;30001;983;1879;-66
2022/07/22 00:28:47;;;;;;;;;;;;;;;19.36;64.69;97268.00;30001;983;1866;-67
2022/07/22 00:29:18;;;;;;;;;;;;;;;19.35;64.61;97269.12;30001;983;1870;-66
2022/07/22 00:29:49;;;;;;;;;;;;;;;19.35;64.72;97263.63;30001;983;1879;-65
2022/07/22 00:30:20;;;;;;;;;;;;;;;19.34;64.96;97262.03;30001;973;1811;-64
2022/07/22 00:30:51;;;;;;;;;;;;;;;19.35;65.81;97269.12;30001;983;1866;-65
2022/07/22 00:31:22;;;;;;;;;;;;;;;19.32;65.10;97267.06;30001;983;1871;-66
2022/07/22 00:31:52;;;;;;;;;;;;;;;19.32;64.81;97263.50;30001;982;1879;-66
2022/07/22 00:32:23;;;;;;;;;;;;;;;19.31;65.29;97257.19;30001;982;1879;-65
2022/07/22 00:32:54;;;;;;;;;;;;;;;19.30;64.95;97261.09;30001;982;1880;-65
2022/07/22 00:33:25;;;;;;;;;;;;;;;19.30;64.85;97263.84;30001;982;1880;-66
2022/07/22 00:33:55;;;;;;;;;;;;;;;19.30;65.85;97261.09;30001;982;1880;-65
2022/07/22 00:34:26;;;;;;;;;;;;;;;19.26;67.17;97265.66;30001;982;1880;-66
2022/07/22 00:34:57;;;;;;;;;;;;;;;19.22;66.63;97263.94;30001;982;1880;-66
2022/07/22 00:35:28;;;;;;;;;;;;;;;19.18;66.35;97261.06;30001;983;1879;-66
2022/07/22 00:35:59;;;;;;;;;;;;;;;19.18;66.16;97263.00;30001;983;1866;-53
2022/07/22 00:36:30;;;;;;;;;;;;;;;19.16;67.13;97260.59;30001;983;1870;-65
2022/07/22 00:37:01;;;;;;;;;;;;;;;19.15;65.97;97258.19;30001;983;1879;-64
2022/07/22 00:37:32;;;;;;;;;;;;;;;19.14;66.34;97262.88;30001;983;1879;-66
2022/07/22 00:38:03;;;;;;;;;;;;;;;19.16;66.14;97260.59;30001;983;1813;-65
2022/07/22 00:38:34;;;;;;;;;;;;;;;19.13;66.55;97261.25;30001;983;1879;-65
2022/07/22 00:39:05;;;;;;;;;;;;;;;19.13;66.17;97260.47;30001;983;1879;-66
2022/07/22 00:39:35;;;;;;;;;;;;;;;19.12;66.89;97262.41;30001;982;1879;-64
2022/07/22 00:40:07;;;;;;;;;;;;;;;19.09;66.89;97260.34;30001;982;1879;-65
2022/07/22 00:40:37;;;;;;;;;;;;;;;19.07;66.84;97259.88;30001;982;1880;-66
2022/07/22 00:41:08;;;;;;;;;;;;;;;19.06;66.64;97258.25;30001;982;1867;-64
2022/07/22 00:41:39;;;;;;;;;;;;;;;19.04;66.84;97263.31;30001;982;1871;-65
2022/07/22 00:42:10;;;;;;;;;;;;;;;19.03;66.60;97256.22;30001;982;1880;-66
2022/07/22 00:42:41;;;;;;;;;;;;;;;19.05;66.55;97260.22;30001;983;1879;-65
2022/07/22 00:43:12;;;;;;;;;;;;;;;19.05;66.33;97259.44;30001;983;1879;-65
2022/07/22 00:43:53;;;;;;;;;;;;;;;19.05;66.46;97264.94;30001;983;1879;-65
2022/07/22 00:44:24;;;;;;;;;;;;;;;19.05;67.18;97259.44;30001;983;1866;-64
2022/07/22 00:44:55;;;;;;;;;;;;;;;19.03;66.64;97257.00;30001;983;1870;-68
2022/07/22 00:45:26;;;;;;;;;;;;;;;19.02;67.26;97249.91;30001;983;1879;-65
2022/07/22 00:45:56;;;;;;;;;;;;;;;19.01;68.23;97264.00;30001;983;1879;-65
2022/07/22 00:46:28;;;;;;;;;;;;;;;18.98;68.05;97259.16;30001;983;1879;-66
2022/07/22 00:46:59;;;;;;;;;;;;;;;18.97;67.53;97252.06;30001;982;1880;-66
2022/07/22 00:47:32;;;;;;;;;;;;;;;18.97;67.52;97257.56;30001;982;1880;-66
2022/07/22 00:48:03;;;;;;;;;;;;;;;18.97;67.31;97260.31;30001;982;1879;-66
2022/07/22 00:48:34;;;;;;;;;;;;;;;18.98;66.81;97259.16;30001;982;1880;-64
2022/07/22 00:49:06;;;;;;;;;;;;;;;18.98;66.79;97259.16;30001;984;1867;-65
2022/07/22 00:49:37;;;;;;;;;;;;;;;18.98;67.37;97259.16;30001;982;1871;-65
2022/07/22 00:50:08;;;;;;;;;;;;;;;18.96;66.95;97258.69;30001;982;1880;-64
2022/07/22 00:50:39;;;;;;;;;;;;;;;18.96;66.80;97244.94;30001;983;1879;-65
2022/07/22 00:51:11;;;;;;;;;;;;;;;18.96;66.97;97251.25;30001;983;1879;-65
2022/07/22 00:51:42;;;;;;;;;;;;;;;18.95;67.12;97254.34;30001;983;1879;-65
2022/07/22 00:52:13;;;;;;;;;;;;;;;18.94;67.62;97250.78;30001;983;1866;-65
2022/07/22 00:52:44;;;;;;;;;;;;;;;18.92;67.79;97255.00;30001;983;1871;-65
2022/07/22 00:53:15;;;;;;;;;;;;;;;18.90;67.37;97254.53;30001;983;1879;-66
2022/07/22 00:53:46;;;;;;;;;;;;;;;18.90;66.96;97260.03;30001;983;1880;-66
2022/07/22 00:54:18;;;;;;;;;;;;;;;18.90;67.00;97246.28;30001;983;1879;-64
2022/07/22 00:54:49;;;;;;;;;;;;;;;18.90;67.09;97246.28;30001;982;1880;-65
2022/07/22 00:55:20;;;;;;;;;;;;;;;18.90;67.55;97249.03;30001;982;1880;-64
2022/07/22 00:55:51;;;;;;;;;;;;;;;18.90;66.97;97257.28;30001;982;1880;-66
2022/07/22 00:56:23;;;;;;;;;;;;;;;18.90;67.21;97246.28;30001;982;1867;-65
2022/07/22 00:56:55;;;;;;;;;;;;;;;18.89;67.04;97250.19;30001;983;1870;-65
2022/07/22 00:57:26;;;;;;;;;;;;;;;18.89;67.17;97250.19;30001;983;1879;-65
2022/07/22 00:57:57;;;;;;;;;;;;;;;18.92;67.09;97252.25;30001;983;1879;-64
2022/07/22 00:58:27;;;;;;;;;;;;;;;18.92;67.01;97249.50;30001;983;1866;-64
2022/07/22 00:59:00;;;;;;;;;;;;;;;18.92;66.54;97249.50;30001;983;1870;-65
2022/07/22 00:59:31;;;;;;;;;;;;;;;18.92;66.93;97250.31;30001;983;1879;-64
2022/07/22 01:00:04;;;;;;;;;;;;;;;18.93;66.45;97251.13;30001;983;1866;-66
2022/07/22 01:00:35;;;;;;;;;;;;;;;18.93;66.63;97246.44;30001;983;1871;-65
2022/07/22 01:01:06;;;;;;;;;;;;;;;18.93;66.46;97257.44;30001;983;1879;-65
2022/07/22 01:01:37;;;;;;;;;;;;;;;18.94;66.45;97249.97;30001;983;1879;-65
2022/07/22 01:02:08;;;;;;;;;;;;;;;18.94;66.35;97250.78;30001;982;1880;-65
2022/07/22 01:02:39;;;;;;;;;;;;;;;18.93;66.58;97251.94;30001;982;1866;-65
2022/07/22 01:03:10;;;;;;;;;;;;;;;18.94;66.51;97249.97;30001;982;1871;-65
2022/07/22 01:03:44;;;;;;;;;;;;;;;18.93;66.30;97246.44;30001;982;1880;-66
2022/07/22 01:04:15;;;;;;;;;;;;;;;18.93;66.47;97245.62;30001;982;1880;-64
2022/07/22 01:04:46;;;;;;;;;;;;;;;18.92;66.87;97255.00;30001;983;1879;-65
2022/07/22 01:05:17;;;;;;;;;;;;;;;18.90;66.59;97246.28;30001;983;1879;-66
2022/07/22 01:05:48;;;;;;;;;;;;;;;18.91;66.51;97253.41;30001;983;1879;-64
2022/07/22 01:06:19;;;;;;;;;;;;;;;18.91;66.56;97245.16;30001;983;1879;-63
2022/07/22 01:06:50;;;;;;;;;;;;;;;18.91;66.71;97245.16;30001;983;1879;-51
2022/07/22 01:07:21;;;;;;;;;;;;;;;18.89;66.47;97251.00;30001;971;1899;-67
2022/07/22 01:07:51;;;;;;;;;;;;;;;18.90;66.71;97243.53;30001;983;1866;-65
2022/07/22 01:08:23;;;;;;;;;;;;;;;18.90;66.46;97249.03;30001;983;1871;-65
2022/07/22 01:08:54;;;;;;;;;;;;;;;18.90;66.67;97249.03;30001;983;1879;-66
2022/07/22 01:09:25;;;;;;;;;;;;;;;18.89;66.78;97244.69;30001;983;1867;-65
2022/07/22 01:09:56;;;;;;;;;;;;;;;18.89;66.70;97250.19;30001;982;1871;-64
2022/07/22 01:10:26;;;;;;;;;;;;;;;18.89;66.74;97244.69;30001;982;1880;-66
2022/07/22 01:11:08;;;;;;;;;;;;;;;18.88;66.81;97245.84;30001;982;1880;-66
2022/07/22 01:11:39;;;;;;;;;;;;;;;18.88;66.65;97234.84;30001;982;1880;-65
2022/07/22 01:12:12;;;;;;;;;;;;;;;18.88;66.56;97238.38;30001;983;1866;-66
2022/07/22 01:12:43;;;;;;;;;;;;;;;18.88;66.86;97245.84;30001;983;1870;-66
2022/07/22 01:13:14;;;;;;;;;;;;;;;18.87;66.91;97252.47;30001;983;1879;-66
2022/07/22 01:13:45;;;;;;;;;;;;;;;18.85;66.77;97252.00;30001;983;1879;-66
2022/07/22 01:14:16;;;;;;;;;;;;;;;18.84;67.15;97240.19;30001;983;1879;-65
2022/07/22 01:14:47;;;;;;;;;;;;;;;18.84;66.78;97242.16;30001;983;1879;-65
2022/07/22 01:15:18;;;;;;;;;;;;;;;18.83;66.79;97241.34;30001;983;1879;-66
2022/07/22 01:15:49;;;;;;;;;;;;;;;18.83;66.88;97240.53;30001;983;1879;-66
2022/07/22 01:16:19;;;;;;;;;;;;;;;18.82;67.16;97239.72;30001;983;1879;-64
2022/07/22 01:16:50;;;;;;;;;;;;;;;18.82;66.87;97244.44;30001;983;1879;-64
2022/07/22 01:17:21;;;;;;;;;;;;;;;18.82;67.30;97239.72;30001;982;1866;-66
2022/07/22 01:17:52;;;;;;;;;;;;;;;18.81;66.93;97242.81;30001;982;1871;-67
2022/07/22 01:18:23;;;;;;;;;;;;;;;18.80;66.91;97241.22;30001;982;1880;-66
2022/07/22 01:18:54;;;;;;;;;;;;;;;18.80;66.87;97243.97;30001;982;1880;-66
2022/07/22 01:19:25;;;;;;;;;;;;;;;18.79;67.24;97240.41;30001;982;1880;-66
2022/07/22 01:20:05;;;;;;;;;;;;;;;18.79;67.33;97240.41;30001;983;1866;-65
2022/07/22 01:20:36;;;;;;;;;;;;;;;18.80;67.43;97235.72;30001;983;1870;-66
2022/07/22 01:21:09;;;;;;;;;;;;;;;18.80;67.12;97243.97;30001;983;1879;-66
2022/07/22 01:21:39;;;;;;;;;;;;;;;18.79;67.04;97245.91;30001;983;1879;-65
2022/07/22 01:22:10;;;;;;;;;;;;;;;18.80;67.28;97236.50;30001;983;1879;-66
2022/07/22 01:22:41;;;;;;;;;;;;;;;18.80;67.72;97238.47;30001;983;1879;-66
2022/07/22 01:23:12;;;;;;;;;;;;;;;18.77;67.98;97236.38;30001;983;1879;-66
2022/07/22 01:23:44;;;;;;;;;;;;;;;18.75;67.65;97240.28;30001;983;1879;-66
2022/07/22 01:24:15;;;;;;;;;;;;;;;18.74;67.45;97244.16;30001;982;1879;-66
2022/07/22 01:24:46;;;;;;;;;;;;;;;18.76;67.39;97241.06;30001;982;1866;-66
2022/07/22 01:25:17;;;;;;;;;;;;;;;18.75;67.20;97245.78;30001;982;1871;-65
2022/07/22 01:25:47;;;;;;;;;;;;;;;18.77;67.47;97237.19;30001;982;1880;-66
2022/07/22 01:26:18;;;;;;;;;;;;;;;18.78;67.65;97240.75;30001;982;1880;-65
2022/07/22 01:26:49;;;;;;;;;;;;;;;18.78;67.63;97238.78;30001;982;1880;-65
2022/07/22 01:27:20;;;;;;;;;;;;;;;18.78;67.50;97243.50;30001;983;1879;-66
2022/07/22 01:27:51;;;;;;;;;;;;;;;18.78;67.59;97238.00;30001;983;1879;-66
2022/07/22 01:28:22;;;;;;;;;;;;;;;18.78;67.37;97241.53;30001;983;1879;-65
2022/07/22 01:28:53;;;;;;;;;;;;;;;18.80;67.67;97241.22;30001;983;1866;-66
2022/07/22 01:29:24;;;;;;;;;;;;;;;18.79;67.20;97242.34;30001;983;1870;-64
2022/07/22 01:29:55;;;;;;;;;;;;;;;18.78;67.30;97238.00;30001;983;1879;-64
2022/07/22 01:30:26;;;;;;;;;;;;;;;18.78;67.60;97244.28;30001;983;1879;-64
2022/07/22 01:30:57;;;;;;;;;;;;;;;18.78;67.61;97244.28;30001;983;1879;-64
2022/07/22 01:31:29;;;;;;;;;;;;;;;18.78;67.15;97238.78;30001;982;1879;-64
2022/07/22 01:32:00;;;;;;;;;;;;;;;18.79;67.42;97245.09;30001;982;1866;-63
2022/07/22 01:32:31;;;;;;;;;;;;;;;18.78;67.07;97235.25;30001;982;1871;-65
2022/07/22 01:33:02;;;;;;;;;;;;;;;18.78;67.52;97238.78;30001;982;1880;-64
2022/07/22 01:33:33;;;;;;;;;;;;;;;18.77;67.31;97230.88;30001;982;1880;-66
2022/07/22 01:34:05;;;;;;;;;;;;;;;18.78;67.49;97238.00;30001;982;1880;-66
2022/07/22 01:34:36;;;;;;;;;;;;;;;18.78;67.70;97249.78;30001;982;1880;-67
2022/07/22 01:35:07;;;;;;;;;;;;;;;18.78;67.79;97238.00;30001;983;1879;-64
2022/07/22 01:35:39;;;;;;;;;;;;;;;18.76;67.50;97241.06;30001;983;1879;-66
2022/07/22 01:36:10;;;;;;;;;;;;;;;18.74;67.91;97244.16;30001;983;1879;-66
2022/07/22 01:36:41;;;;;;;;;;;;;;;18.73;67.58;97239.00;30001;983;1879;-66
2022/07/22 01:37:12;;;;;;;;;;;;;;;18.72;67.78;97235.44;30001;983;1866;-66
2022/07/22 01:37:43;;;;;;;;;;;;;;;18.71;67.72;97239.34;30001;983;1871;-65
2022/07/22 01:38:14;;;;;;;;;;;;;;;18.70;67.82;97240.50;30001;983;1879;-66
2022/07/22 01:38:45;;;;;;;;;;;;;;;18.71;68.00;97250.31;30001;983;1879;-67
2022/07/22 01:39:16;;;;;;;;;;;;;;;18.72;67.71;97242.87;30001;982;1880;-65
2022/07/22 01:39:48;;;;;;;;;;;;;;;18.71;67.59;97244.84;30001;982;1880;-65
2022/07/22 01:40:19;;;;;;;;;;;;;;;18.69;68.24;97238.91;30001;982;1880;-66
2022/07/22 01:40:50;;;;;;;;;;;;;;;18.68;67.63;97240.03;30001;982;1880;-66
2022/07/22 01:41:21;;;;;;;;;;;;;;;18.69;68.12;97247.16;30001;982;1880;-65
2022/07/22 01:41:52;;;;;;;;;;;;;;;18.67;68.42;97238.44;30001;982;1880;-66
2022/07/22 01:42:23;;;;;;;;;;;;;;;18.66;68.40;97241.50;30001;983;1866;-64
2022/07/22 01:42:54;;;;;;;;;;;;;;;18.63;68.31;97243.00;30001;983;1870;-66
2022/07/22 01:43:24;;;;;;;;;;;;;;;18.64;68.32;97243.78;30001;983;1879;-66
2022/07/22 01:43:55;;;;;;;;;;;;;;;18.63;68.10;97242.19;30001;983;1879;-66
2022/07/22 01:44:26;;;;;;;;;;;;;;;18.63;68.66;97243.00;30001;983;1879;-66
2022/07/22 01:44:57;;;;;;;;;;;;;;;18.63;68.28;97242.19;30001;983;1879;-66
2022/07/22 01:45:28;;;;;;;;;;;;;;;18.63;68.20;97243.00;30001;983;1879;-64
2022/07/22 01:45:58;;;;;;;;;;;;;;;18.63;68.77;97243.00;30001;983;1879;-65
2022/07/22 01:46:29;;;;;;;;;;;;;;;18.61;69.80;97245.25;30001;982;1880;-66
2022/07/22 01:47:03;;;;;;;;;;;;;;;18.58;69.51;97247.84;30001;982;1866;-66
2022/07/22 01:47:34;;;;;;;;;;;;;;;18.56;69.41;97242.69;30001;982;1871;-53
2022/07/22 01:48:05;;;;;;;;;;;;;;;18.55;69.26;97246.56;30001;982;1880;-65
2022/07/22 01:48:36;;;;;;;;;;;;;;;18.54;69.36;97242.22;30001;982;1774;-64
2022/07/22 01:49:08;;;;;;;;;;;;;;;18.54;69.29;97244.97;30001;983;1870;-66
2022/07/22 01:49:39;;;;;;;;;;;;;;;18.53;69.56;97246.09;30001;983;1879;-66
2022/07/22 01:50:13;;;;;;;;;;;;;;;18.53;68.90;97231.56;30001;983;1879;-65
2022/07/22 01:50:44;;;;;;;;;;;;;;;18.53;69.32;97243.34;30001;983;1879;-66
2022/07/22 01:51:15;;;;;;;;;;;;;;;18.52;68.93;97241.75;30001;983;1879;-66
2022/07/22 01:51:46;;;;;;;;;;;;;;;18.53;69.19;97243.34;30001;983;1762;-66
2022/07/22 01:52:17;;;;;;;;;;;;;;;18.52;68.79;97236.25;30001;983;1871;-64
2022/07/22 01:52:48;;;;;;;;;;;;;;;18.53;69.05;97242.53;30001;983;1879;-66
2022/07/22 01:53:19;;;;;;;;;;;;;;;18.52;68.73;97241.75;30001;983;1879;-66
2022/07/22 01:53:50;;;;;;;;;;;;;;;18.52;69.60;97240.94;30001;983;1879;-67
2022/07/22 01:54:20;;;;;;;;;;;;;;;18.49;69.18;97236.91;30001;982;1880;-66
2022/07/22 01:54:51;;;;;;;;;;;;;;;18.48;69.30;97238.06;30001;982;1880;-65
2022/07/22 01:55:22;;;;;;;;;;;;;;;18.47;69.57;97233.69;30001;982;1880;-66
2022/07/22 01:55:53;;;;;;;;;;;;;;;18.46;70.40;97243.09;30001;982;1880;-66
2022/07/22 01:56:24;;;;;;;;;;;;;;;18.41;70.09;97241.34;30001;982;1867;-66
2022/07/22 01:56:55;;;;;;;;;;;;;;;18.38;69.96;97235.69;30001;983;1870;-66
2022/07/22 01:57:26;;;;;;;;;;;;;;;18.38;69.71;97235.69;30001;983;1879;-66
2022/07/22 01:57:57;;;;;;;;;;;;;;;18.37;69.75;97234.91;30001;983;1879;-65
2022/07/22 01:58:28;;;;;;;;;;;;;;;18.40;69.41;97244.41;30001;983;1879;-65
2022/07/22 01:58:58;;;;;;;;;;;;;;;18.39;70.00;97237.31;30001;983;1879;-66
2022/07/22 01:59:29;;;;;;;;;;;;;;;18.37;70.48;97239.59;30001;983;1879;-66
2022/07/22 02:00:00;;;;;;;;;;;;;;;18.35;70.09;97236.41;30001;983;1879;-66
2022/07/22 02:00:32;;;;;;;;;;;;;;;18.33;71.00;97233.19;30001;983;1879;-66
2022/07/22 02:01:03;;;;;;;;;;;;;;;18.29;71.33;97232.25;30001;983;1879;-65
2022/07/22 02:01:34;;;;;;;;;;;;;;;18.27;70.73;97238.06;30001;982;1866;-66
2022/07/22 02:02:05;;;;;;;;;;;;;;;18.28;70.36;97236.94;30001;982;1871;-65
2022/07/22 02:02:35;;;;;;;;;;;;;;;18.26;70.75;97232.91;30001;982;1880;-66
2022/07/22 02:03:06;;;;;;;;;;;;;;;18.25;70.40;97234.84;30001;982;1880;-65
2022/07/22 02:03:37;;;;;;;;;;;;;;;18.26;70.70;97238.41;30001;982;1880;-66
2022/07/22 02:04:08;;;;;;;;;;;;;;;18.27;70.35;97240.00;30001;983;1879;-66
2022/07/22 02:04:39;;;;;;;;;;;;;;;18.27;70.45;97235.31;30001;983;1879;-68
2022/07/22 02:05:10;;;;;;;;;;;;;;;18.28;70.52;97242.41;30001;983;1866;-66
2022/07/22 02:05:41;;;;;;;;;;;;;;;18.29;70.19;97234.97;30001;983;1870;-66
2022/07/22 02:06:11;;;;;;;;;;;;;;;18.29;70.03;97238.53;30001;983;1879;-66
2022/07/22 02:06:42;;;;;;;;;;;;;;;18.30;69.98;97239.34;30001;983;1879;-67
2022/07/22 02:07:13;;;;;;;;;;;;;;;18.29;69.68;97234.97;30001;983;1879;-65
2022/07/22 02:07:45;;;;;;;;;;;;;;;18.29;69.89;97235.78;30001;983;1879;-65
2022/07/22 02:08:16;;;;;;;;;;;;;;;18.28;69.84;97236.13;30001;983;1879;-66
2022/07/22 02:08:47;;;;;;;;;;;;;;;18.28;69.91;97242.41;30001;983;1879;-66
2022/07/22 02:09:18;;;;;;;;;;;;;;;18.26;69.96;97232.91;30001;982;1880;-67
2022/07/22 02:09:48;;;;;;;;;;;;;;;18.26;69.80;97235.66;30001;982;1880;-66
2022/07/22 02:10:19;;;;;;;;;;;;;;;18.25;70.39;97243.09;30001;982;1866;-65
2022/07/22 02:10:50;;;;;;;;;;;;;;;18.23;70.42;97233.56;30001;982;1871;-66
2022/07/22 02:11:21;;;;;;;;;;;;;;;18.22;69.91;97227.28;30001;982;1880;-67
2022/07/22 02:11:51;;;;;;;;;;;;;;;18.21;70.20;97236.66;30001;983;1879;-54
2022/07/22 02:12:22;;;;;;;;;;;;;;;18.22;70.49;97234.72;30001;983;1879;-67
2022/07/22 02:12:53;;;;;;;;;;;;;;;18.20;71.02;97239.72;30001;983;1879;-65
2022/07/22 02:13:24;;;;;;;;;;;;;;;18.20;71.63;97234.22;30001;983;1879;-65
2022/07/22 02:13:55;;;;;;;;;;;;;;;18.17;70.85;97235.69;30001;985;1879;-66
2022/07/22 02:14:26;;;;;;;;;;;;;;;18.16;71.07;97234.09;30001;983;1879;-64
2022/07/22 02:14:57;;;;;;;;;;;;;;;18.16;70.96;97233.28;30001;983;1879;-66
2022/07/22 02:15:29;;;;;;;;;;;;;;;18.17;71.34;97234.91;30001;983;1866;-66
2022/07/22 02:15:59;;;;;;;;;;;;;;;18.14;71.43;97235.56;30001;983;1871;-66
2022/07/22 02:16:30;;;;;;;;;;;;;;;18.12;70.77;97237.84;30001;964;1851;-65
2022/07/22 02:17:01;;;;;;;;;;;;;;;18.12;71.05;97227.66;30001;982;1880;-66
2022/07/22 02:17:34;;;;;;;;;;;;;;;18.13;71.05;97239.44;30001;982;1879;-66
2022/07/22 02:18:15;;;;;;;;;;;;;;;18.12;71.09;97232.34;30001;982;1880;-67
2022/07/22 02:18:45;;;;;;;;;;;;;;;18.12;70.94;97232.34;30001;982;1867;-66
2022/07/22 02:19:16;;;;;;;;;;;;;;;18.13;70.86;97239.44;30001;983;1870;-66
2022/07/22 02:19:47;;;;;;;;;;;;;;;18.13;70.75;97242.19;30001;983;1879;-67
2022/07/22 02:20:18;;;;;;;;;;;;;;;18.12;71.02;97232.34;30001;983;1879;-66
2022/07/22 02:20:49;;;;;;;;;;;;;;;18.12;71.33;97237.84;30001;983;1879;-66
2022/07/22 02:21:21;;;;;;;;;;;;;;;18.08;72.29;97233.00;30001;983;1879;-65
2022/07/22 02:21:52;;;;;;;;;;;;;;;18.04;71.98;97232.06;30001;983;1879;-65
2022/07/22 02:22:22;;;;;;;;;;;;;;;18.04;71.61;97234.81;30001;983;1879;-66
2022/07/22 02:22:53;;;;;;;;;;;;;;;18.02;71.65;97234.34;30001;983;1879;-66
2022/07/22 02:23:24;;;;;;;;;;;;;;;18.02;72.15;97231.59;30001;982;1879;-66
2022/07/22 02:23:55;;;;;;;;;;;;;;;18.01;72.26;97238.25;30001;982;1866;-66
2022/07/22 02:24:25;;;;;;;;;;;;;;;17.98;72.77;97235.34;30001;982;1871;-66
2022/07/22 02:24:56;;;;;;;;;;;;;;;17.98;72.19;97238.91;30001;982;1880;-64
2022/07/22 02:25:27;;;;;;;;;;;;;;;17.97;72.23;97231.81;30001;982;1880;-66
2022/07/22 02:25:58;;;;;;;;;;;;;;;17.97;72.33;97242.78;30001;986;1880;-65
2022/07/22 02:26:29;;;;;;;;;;;;;;;17.95;72.34;97230.53;30001;982;1880;-65
2022/07/22 02:27:01;;;;;;;;;;;;;;;17.94;72.21;97229.72;30001;983;1879;-65
2022/07/22 02:27:31;;;;;;;;;;;;;;;17.93;72.13;97225.38;30001;983;1879;-67
2022/07/22 02:28:03;;;;;;;;;;;;;;;17.94;72.66;97234.41;30001;983;1879;-66
2022/07/22 02:28:34;;;;;;;;;;;;;;;17.92;73.25;97236.69;30001;983;1866;-66
2022/07/22 02:29:05;;;;;;;;;;;;;;;17.90;73.20;97231.53;30001;983;1870;-66
2022/07/22 02:29:36;;;;;;;;;;;;;;;17.88;72.75;97233.78;30001;983;1880;-65
2022/07/22 02:30:08;;;;;;;;;;;;;;;17.89;72.41;97229.91;30001;983;1879;-66
2022/07/22 02:30:39;;;;;;;;;;;;;;;17.90;72.67;97227.97;30001;983;1879;-66
2022/07/22 02:31:10;;;;;;;;;;;;;;;17.90;72.18;97236.19;30001;982;1879;-65
2022/07/22 02:31:40;;;;;;;;;;;;;;;17.91;72.46;97233.13;30001;982;1880;-66
2022/07/22 02:32:11;;;;;;;;;;;;;;;17.91;72.46;97233.13;30001;982;1866;-66
2022/07/22 02:32:42;;;;;;;;;;;;;;;17.91;72.24;97227.63;30001;982;1871;-65
2022/07/22 02:33:14;;;;;;;;;;;;;;;17.92;72.33;97233.94;30001;982;1880;-67
2022/07/22 02:33:45;;;;;;;;;;;;;;;17.92;72.45;97234.75;30001;982;1880;-66
2022/07/22 02:34:16;;;;;;;;;;;;;;;17.92;72.96;97240.22;30001;983;1879;-66
2022/07/22 02:34:47;;;;;;;;;;;;;;;17.91;72.63;97232.31;30001;983;1784;-65
2022/07/22 02:35:18;;;;;;;;;;;;;;;17.91;73.01;97232.31;30001;983;1879;-66
2022/07/22 02:35:49;;;;;;;;;;;;;;;17.90;72.94;97234.25;30001;983;1879;-65
2022/07/22 02:36:20;;;;;;;;;;;;;;;17.90;73.01;97230.72;30001;983;1879;-66
2022/07/22 02:36:51;;;;;;;;;;;;;;;17.90;73.27;97233.47;30001;983;1879;-66
2022/07/22 02:37:23;;;;;;;;;;;;;;;17.89;73.72;97229.91;30001;983;1866;-65
2022/07/22 02:37:53;;;;;;;;;;;;;;;17.87;73.43;97232.19;30001;983;1871;-65
2022/07/22 02:38:24;;;;;;;;;;;;;;;17.87;73.49;97237.66;30001;968;1900;-66
2022/07/22 02:38:55;;;;;;;;;;;;;;;17.87;72.98;97237.66;30001;982;1879;-66
2022/07/22 02:39:26;;;;;;;;;;;;;;;17.87;72.95;97232.19;30001;982;1880;-66
2022/07/22 02:39:57;;;;;;;;;;;;;;;17.87;73.11;97232.19;30001;982;1880;-66
2022/07/22 02:40:28;;;;;;;;;;;;;;;17.87;73.32;97232.19;30001;982;1880;-66
2022/07/22 02:40:58;;;;;;;;;;;;;;;17.87;73.52;97226.69;30001;982;1880;-66
2022/07/22 02:41:29;;;;;;;;;;;;;;;17.86;73.42;97230.56;30001;982;1880;-66
2022/07/22 02:42:00;;;;;;;;;;;;;;;17.86;73.08;97230.56;30001;983;1879;-53
2022/07/22 02:42:33;;;;;;;;;;;;;;;17.87;73.02;97231.38;30001;983;1866;-66
2022/07/22 02:43:06;;;;;;;;;;;;;;;17.86;73.05;97225.06;30001;983;1857;-66
2022/07/22 02:43:36;;;;;;;;;;;;;;;17.85;73.70;97222.66;30001;983;1879;-66
2022/07/22 02:44:07;;;;;;;;;;;;;;;17.83;73.75;97228.47;30001;983;1879;-67
2022/07/22 02:44:38;;;;;;;;;;;;;;;17.82;73.41;97221.38;30001;983;1879;-66
2022/07/22 02:45:09;;;;;;;;;;;;;;;17.83;73.48;97223.00;30001;983;1879;-66
2022/07/22 02:45:40;;;;;;;;;;;;;;;17.84;73.40;97227.34;30001;983;1879;-65
2022/07/22 02:46:11;;;;;;;;;;;;;;;17.87;73.02;97223.12;30001;982;1880;-66
2022/07/22 02:46:42;;;;;;;;;;;;;;;17.88;72.74;97228.31;30002;982;1880;-65